createdAt,value
2019-05-26T00:00:22.705Z,76.88
2019-05-26T00:02:52.460Z,76.87
2019-05-26T00:05:22.470Z,77.05
2019-05-26T00:07:52.659Z,77.12
2019-05-26T00:10:22.494Z,77.38
2019-05-26T00:12:52.549Z,77.59
2019-05-26T00:15:22.546Z,77.37
2019-05-26T00:17:52.567Z,77.61
2019-05-26T00:20:21.601Z,77.60
2019-05-26T00:22:50.607Z,77.26
2019-05-26T00:25:19.652Z,77.52
2019-05-26T00:27:48.664Z,77.47
2019-05-26T00:30:17.825Z,77.27
2019-05-26T00:32:47.154Z,77.44
2019-05-26T00:35:16.366Z,77.41
2019-05-26T00:37:50.011Z,77.14
2019-05-26T00:40:18.082Z,77.43
2019-05-26T00:42:47.118Z,77.29
2019-05-26T00:45:17.026Z,77.48
2019-05-26T00:47:46.058Z,77.53
2019-05-26T00:50:15.572Z,77.35
2019-05-26T00:52:44.923Z,77.16
2019-05-26T00:55:14.341Z,77.04
2019-05-26T00:57:43.388Z,77.02
2019-05-26T01:00:12.619Z,76.87
2019-05-26T01:02:41.779Z,76.84
2019-05-26T01:05:11.210Z,77.07
2019-05-26T01:07:40.236Z,77.00
2019-05-26T01:10:09.799Z,76.99
2019-05-26T01:12:38.829Z,77.00
2019-05-26T01:15:08.338Z,77.19
2019-05-26T01:17:37.382Z,77.05
2019-05-26T01:20:06.852Z,76.91
2019-05-26T01:22:35.849Z,76.70
2019-05-26T01:25:05.252Z,76.96
2019-05-26T01:27:34.287Z,76.67
2019-05-26T01:30:03.354Z,76.78
2019-05-26T01:32:33.452Z,76.76
2019-05-26T01:35:02.509Z,76.67
2019-05-26T01:37:31.869Z,77.22
2019-05-26T01:40:00.966Z,77.18
2019-05-26T01:42:30.305Z,77.11
2019-05-26T01:44:59.337Z,76.98
2019-05-26T01:47:28.195Z,77.24
2019-05-26T01:49:57.224Z,77.14
2019-05-26T01:52:26.328Z,77.21
2019-05-26T01:54:55.225Z,77.29
2019-05-26T01:57:24.261Z,76.87
2019-05-26T01:59:53.303Z,77.24
2019-05-26T02:02:22.356Z,76.97
2019-05-26T02:04:51.473Z,76.89
2019-05-26T02:07:20.518Z,76.87
2019-05-26T02:09:49.531Z,77.14
2019-05-26T02:12:18.589Z,77.12
2019-05-26T02:14:47.615Z,77.58
2019-05-26T02:17:16.637Z,77.64
2019-05-26T02:19:45.502Z,77.48
2019-05-26T02:22:14.539Z,77.68
2019-05-26T02:24:43.549Z,77.45
2019-05-26T02:27:12.587Z,77.87
2019-05-26T02:29:41.644Z,77.86
2019-05-26T02:32:10.684Z,77.93
2019-05-26T02:34:39.722Z,77.63
2019-05-26T02:37:08.757Z,77.63
2019-05-26T02:39:37.787Z,77.20
2019-05-26T02:42:06.820Z,77.03
2019-05-26T02:44:35.839Z,77.02
2019-05-26T02:47:04.882Z,77.23
2019-05-26T02:49:34.231Z,77.15
2019-05-26T02:52:03.276Z,77.27
2019-05-26T02:54:32.288Z,77.33
2019-05-26T02:57:01.339Z,77.41
2019-05-26T02:59:30.365Z,77.79
2019-05-26T03:02:03.978Z,77.93
2019-05-26T03:04:31.020Z,78.19
2019-05-26T03:07:02.025Z,78.32
2019-05-26T03:09:33.600Z,78.48
2019-05-26T03:12:05.351Z,78.58
2019-05-26T03:14:35.344Z,78.49
2019-05-26T03:17:04.604Z,78.44
2019-05-26T03:19:35.632Z,78.10
2019-05-26T03:22:04.911Z,78.37
2019-05-26T03:24:34.280Z,78.44
2019-05-26T03:27:03.496Z,78.52
2019-05-26T03:29:32.518Z,78.39
2019-05-26T03:32:01.590Z,78.54
2019-05-26T03:34:30.681Z,78.71
2019-05-26T03:36:59.730Z,78.39
2019-05-26T03:39:43.539Z,78.50
2019-05-26T03:41:59.390Z,78.29
2019-05-26T03:44:28.330Z,78.45
2019-05-26T03:46:57.289Z,78.34
2019-05-26T03:49:26.429Z,78.08
2019-05-26T03:51:55.755Z,78.14
2019-05-26T03:54:25.341Z,78.02
2019-05-26T03:56:55.328Z,77.89
2019-05-26T03:59:25.461Z,77.80
2019-05-26T04:01:57.529Z,77.67
2019-05-26T04:04:26.828Z,77.36
2019-05-26T04:06:55.881Z,77.33
2019-05-26T04:09:25.556Z,77.34
2019-05-26T04:11:55.546Z,77.29
2019-05-26T04:14:25.527Z,77.48
2019-05-26T04:16:58.610Z,77.02
2019-05-26T04:19:27.882Z,77.09
2019-05-26T04:21:56.895Z,77.12
2019-05-26T04:24:25.963Z,77.07
2019-05-26T04:26:55.915Z,76.71
2019-05-26T04:29:26.061Z,76.71
2019-05-26T04:31:55.651Z,76.31
2019-05-26T04:34:25.704Z,76.12
2019-05-26T04:36:55.949Z,76.08
2019-05-26T04:39:25.728Z,75.87
2019-05-26T04:41:55.703Z,75.82
2019-05-26T04:44:26.055Z,75.55
2019-05-26T04:46:55.777Z,75.84
2019-05-26T04:49:26.054Z,75.62
2019-05-26T04:51:55.791Z,75.32
2019-05-26T04:54:25.819Z,74.59
2019-05-26T04:56:55.935Z,74.72
2019-05-26T04:59:25.855Z,73.57
2019-05-26T05:01:56.186Z,73.26
2019-05-26T05:04:25.899Z,73.41
2019-05-26T05:06:55.913Z,72.87
2019-05-26T05:09:24.945Z,73.79
2019-05-26T05:11:54.022Z,73.55
2019-05-26T05:14:23.352Z,73.23
2019-05-26T05:16:52.384Z,73.24
2019-05-26T05:19:21.759Z,73.65
2019-05-26T05:21:50.753Z,74.00
2019-05-26T05:24:19.692Z,73.77
2019-05-26T05:26:49.273Z,74.31
2019-05-26T05:29:18.288Z,73.76
2019-05-26T05:31:47.328Z,73.71
2019-05-26T05:34:16.343Z,73.51
2019-05-26T05:36:45.384Z,73.50
2019-05-26T05:39:14.351Z,73.53
2019-05-26T05:41:43.365Z,72.94
2019-05-26T05:44:12.408Z,73.61
2019-05-26T05:46:41.451Z,73.44
2019-05-26T05:49:10.469Z,72.79
2019-05-26T05:51:39.511Z,72.82
2019-05-26T05:54:08.526Z,72.81
2019-05-26T05:56:37.473Z,72.84
2019-05-26T05:59:06.812Z,72.68
2019-05-26T06:01:35.832Z,72.73
2019-05-26T06:04:04.904Z,72.92
2019-05-26T06:06:33.955Z,72.71
2019-05-26T06:09:03.267Z,73.20
2019-05-26T06:11:32.230Z,73.23
2019-05-26T06:14:01.243Z,73.64
2019-05-26T06:16:30.302Z,73.99
2019-05-26T06:18:59.396Z,73.66
2019-05-26T06:21:28.450Z,73.93
2019-05-26T06:23:57.458Z,75.18
2019-05-26T06:26:26.675Z,75.18
2019-05-26T06:28:56.577Z,74.32
2019-05-26T06:31:26.526Z,75.28
2019-05-26T06:33:56.595Z,75.37
2019-05-26T06:36:25.630Z,74.77
2019-05-26T06:38:54.647Z,74.70
2019-05-26T06:41:32.939Z,75.11
2019-05-26T06:43:54.671Z,75.51
2019-05-26T06:46:23.709Z,75.59
2019-05-26T06:48:52.754Z,76.06
2019-05-26T06:51:22.181Z,76.03
2019-05-26T06:53:51.511Z,76.56
2019-05-26T06:56:20.561Z,76.99
2019-05-26T06:58:49.603Z,77.45
2019-05-26T07:01:18.638Z,77.18
2019-05-26T07:03:47.707Z,75.97
2019-05-26T07:06:16.747Z,76.49
2019-05-26T07:08:45.714Z,76.59
2019-05-26T07:11:14.785Z,76.57
2019-05-26T07:13:43.787Z,77.12
2019-05-26T07:16:12.834Z,77.45
2019-05-26T07:18:41.869Z,77.91
2019-05-26T07:21:10.909Z,77.91
2019-05-26T07:23:39.945Z,78.48
2019-05-26T07:26:08.958Z,78.44
2019-05-26T07:28:37.975Z,78.28
2019-05-26T07:31:07.033Z,78.87
2019-05-26T07:33:36.472Z,78.98
2019-05-26T07:36:05.691Z,79.03
2019-05-26T07:38:34.740Z,79.44
2019-05-26T07:41:03.791Z,79.72
2019-05-26T07:43:32.834Z,80.11
2019-05-26T07:46:01.904Z,80.26
2019-05-26T07:48:30.970Z,80.93
2019-05-26T07:50:59.999Z,81.03
2019-05-26T07:53:29.060Z,81.02
2019-05-26T07:55:58.088Z,80.95
2019-05-26T07:58:27.395Z,81.22
2019-05-26T08:00:57.423Z,81.85
2019-05-26T08:03:27.431Z,81.72
2019-05-26T08:05:57.741Z,81.72
2019-05-26T08:08:27.767Z,81.79
2019-05-26T08:10:57.463Z,81.96
2019-05-26T08:13:27.521Z,82.06
2019-05-26T08:15:57.432Z,82.06
2019-05-26T08:18:27.519Z,82.32
2019-05-26T08:20:57.510Z,81.84
2019-05-26T08:23:27.493Z,82.04
2019-05-26T08:25:57.637Z,82.31
2019-05-26T08:28:27.567Z,81.99
2019-05-26T08:30:57.620Z,81.74
2019-05-26T08:33:27.657Z,82.09
2019-05-26T08:35:57.645Z,81.71
2019-05-26T08:38:27.957Z,81.70
2019-05-26T08:40:58.033Z,81.70
2019-05-26T08:43:28.154Z,81.94
2019-05-26T08:45:57.773Z,82.10
2019-05-26T08:48:26.783Z,81.97
2019-05-26T08:50:55.844Z,81.84
2019-05-26T08:53:24.879Z,81.93
2019-05-26T08:55:53.916Z,82.09
2019-05-26T08:58:22.947Z,82.26
2019-05-26T09:00:52.008Z,81.94
2019-05-26T09:03:21.028Z,81.94
2019-05-26T09:05:50.383Z,82.41
2019-05-26T09:08:19.743Z,81.91
2019-05-26T09:10:48.778Z,81.96
2019-05-26T09:13:17.801Z,81.44
2019-05-26T09:15:46.872Z,81.59
2019-05-26T09:18:18.942Z,81.91
2019-05-26T09:20:48.428Z,81.52
2019-05-26T09:23:17.461Z,81.52
2019-05-26T09:25:46.853Z,81.38
2019-05-26T09:28:15.896Z,81.56
2019-05-26T09:30:45.041Z,81.37
2019-05-26T09:33:14.074Z,81.25
2019-05-26T09:35:43.107Z,81.32
2019-05-26T09:38:12.179Z,81.46
2019-05-26T09:40:41.208Z,81.27
2019-05-26T09:43:16.033Z,81.09
2019-05-26T09:45:41.000Z,81.39
2019-05-26T09:48:10.052Z,80.52
2019-05-26T09:50:39.103Z,81.03
2019-05-26T09:53:08.146Z,81.29
2019-05-26T09:55:37.187Z,80.85
2019-05-26T09:58:06.235Z,80.85
2019-05-26T10:00:35.317Z,81.14
2019-05-26T10:03:04.338Z,81.21
2019-05-26T10:05:33.691Z,80.55
2019-05-26T10:08:02.696Z,80.58
2019-05-26T10:10:31.746Z,79.79
2019-05-26T10:13:00.814Z,79.60
2019-05-26T10:15:29.850Z,79.40
2019-05-26T10:17:58.782Z,79.17
2019-05-26T10:20:28.787Z,77.30
2019-05-26T10:22:58.779Z,77.12
2019-05-26T10:25:28.850Z,77.04
2019-05-26T10:27:58.902Z,76.41
2019-05-26T10:30:28.832Z,77.15
2019-05-26T10:32:59.343Z,75.07
2019-05-26T10:35:28.907Z,75.80
2019-05-26T10:37:58.894Z,76.12
2019-05-26T10:40:28.923Z,75.76
2019-05-26T10:42:58.921Z,75.82
2019-05-26T10:45:28.940Z,75.63
2019-05-26T10:47:58.872Z,76.06
2019-05-26T10:50:28.806Z,75.74
2019-05-26T10:52:58.877Z,76.44
2019-05-26T10:55:28.944Z,76.06
2019-05-26T10:57:58.958Z,75.79
2019-05-26T11:00:28.940Z,76.55
2019-05-26T11:02:58.962Z,76.72
2019-05-26T11:05:29.037Z,77.57
2019-05-26T11:07:58.986Z,77.87
2019-05-26T11:10:29.043Z,77.70
2019-05-26T11:12:58.949Z,78.00
2019-05-26T11:15:27.985Z,78.36
2019-05-26T11:17:57.659Z,78.45
2019-05-26T11:20:26.792Z,78.43
2019-05-26T11:22:55.799Z,78.10
2019-05-26T11:25:24.840Z,77.96
2019-05-26T11:27:53.863Z,78.19
2019-05-26T11:30:23.196Z,77.72
2019-05-26T11:32:52.224Z,78.18
2019-05-26T11:35:21.361Z,78.93
2019-05-26T11:37:50.361Z,77.92
2019-05-26T11:40:19.496Z,78.99
2019-05-26T11:42:48.521Z,78.37
2019-05-26T11:45:19.196Z,78.47
2019-05-26T11:47:48.220Z,78.36
2019-05-26T11:50:17.756Z,79.02
2019-05-26T11:52:46.791Z,79.69
2019-05-26T11:55:16.255Z,78.94
2019-05-26T11:57:45.548Z,79.35
2019-05-26T12:00:16.150Z,79.15
2019-05-26T12:02:45.936Z,79.01
2019-05-26T12:05:17.775Z,78.95
2019-05-26T12:07:46.557Z,78.08
2019-05-26T12:10:17.363Z,78.55
2019-05-26T12:12:46.423Z,78.69
2019-05-26T12:15:16.152Z,79.26
2019-05-26T12:17:45.203Z,77.95
2019-05-26T12:20:14.529Z,78.49
2019-05-26T12:22:43.804Z,77.69
2019-05-26T12:25:13.126Z,77.92
2019-05-26T12:27:42.367Z,78.00
2019-05-26T12:30:12.012Z,76.88
2019-05-26T12:32:41.028Z,77.70
2019-05-26T12:35:10.277Z,77.08
2019-05-26T12:37:39.303Z,76.39
2019-05-26T12:40:09.355Z,76.17
2019-05-26T12:42:38.416Z,76.64
2019-05-26T12:45:08.416Z,76.47
2019-05-26T12:47:37.423Z,76.38
2019-05-26T12:50:07.934Z,76.79
2019-05-26T12:52:36.971Z,76.94
2019-05-26T12:55:09.290Z,77.29
2019-05-26T12:57:37.513Z,77.69
2019-05-26T13:00:06.895Z,78.47
2019-05-26T13:02:35.940Z,78.17
2019-05-26T13:05:05.187Z,78.47
2019-05-26T13:07:34.213Z,78.85
2019-05-26T13:10:03.230Z,79.16
2019-05-26T13:12:32.272Z,79.19
2019-05-26T13:15:05.964Z,79.26
2019-05-26T13:17:32.073Z,78.78
2019-05-26T13:20:01.105Z,80.06
2019-05-26T13:22:30.145Z,79.89
2019-05-26T13:24:59.757Z,79.72
2019-05-26T13:27:29.890Z,80.21
2019-05-26T13:29:59.801Z,80.44
2019-05-26T13:32:29.722Z,80.74
2019-05-26T13:34:58.774Z,81.22
2019-05-26T13:37:27.811Z,81.50
2019-05-26T13:39:56.846Z,81.24
2019-05-26T13:42:25.897Z,81.83
2019-05-26T13:44:55.311Z,82.64
2019-05-26T13:47:26.554Z,82.29
2019-05-26T13:49:55.100Z,82.69
2019-05-26T13:52:24.128Z,83.02
2019-05-26T13:54:53.177Z,83.02
2019-05-26T13:57:22.125Z,83.07
2019-05-26T13:59:51.205Z,83.13
2019-05-26T14:02:20.250Z,83.06
2019-05-26T14:04:49.318Z,83.20
2019-05-26T14:07:18.668Z,83.22
2019-05-26T14:09:47.719Z,83.21
2019-05-26T14:12:16.770Z,83.12
2019-05-26T14:14:45.925Z,83.39
2019-05-26T14:17:15.245Z,83.59
2019-05-26T14:19:46.504Z,83.30
2019-05-26T14:22:15.535Z,83.58
2019-05-26T14:24:53.303Z,83.61
2019-05-26T14:27:15.704Z,83.75
2019-05-26T14:29:45.035Z,83.65
2019-05-26T14:32:14.080Z,83.60
2019-05-26T14:34:43.098Z,83.65
2019-05-26T14:37:12.085Z,83.81
2019-05-26T14:39:41.512Z,83.76
2019-05-26T14:42:10.472Z,83.26
2019-05-26T14:44:39.507Z,82.82
2019-05-26T14:47:08.554Z,82.96
2019-05-26T14:49:37.591Z,83.16
2019-05-26T14:52:06.863Z,83.58
2019-05-26T14:54:35.932Z,83.48
2019-05-26T14:57:04.948Z,83.40
2019-05-26T14:59:33.983Z,83.40
2019-05-26T15:02:03.033Z,83.65
2019-05-26T15:04:31.984Z,83.49
2019-05-26T15:07:01.006Z,83.81
2019-05-26T15:09:30.799Z,83.60
2019-05-26T15:12:00.819Z,83.54
2019-05-26T15:14:30.846Z,82.76
2019-05-26T15:17:00.834Z,82.68
2019-05-26T15:19:30.879Z,82.54
2019-05-26T15:22:00.856Z,81.97
2019-05-26T15:24:30.904Z,81.87
2019-05-26T15:27:00.924Z,81.81
2019-05-26T15:29:30.912Z,82.47
2019-05-26T15:32:03.012Z,81.48
2019-05-26T15:34:31.743Z,81.57
2019-05-26T15:37:00.987Z,81.71
2019-05-26T15:39:31.011Z,81.56
2019-05-26T15:42:00.994Z,81.44
2019-05-26T15:44:31.055Z,81.67
2019-05-26T15:47:01.033Z,81.52
2019-05-26T15:49:31.080Z,82.28
2019-05-26T15:52:01.067Z,82.43
2019-05-26T15:54:31.066Z,82.40
2019-05-26T15:57:01.136Z,82.28
2019-05-26T15:59:31.137Z,82.27
2019-05-26T16:02:01.156Z,82.49
2019-05-26T16:04:32.716Z,82.76
2019-05-26T16:07:01.737Z,83.00
2019-05-26T16:09:31.221Z,83.36
2019-05-26T16:12:01.169Z,83.69
2019-05-26T16:14:31.226Z,83.52
2019-05-26T16:17:01.290Z,83.80
2019-05-26T16:19:31.267Z,83.95
2019-05-26T16:22:01.300Z,84.16
2019-05-26T16:24:31.308Z,84.58
2019-05-26T16:27:17.849Z,84.79
2019-05-26T16:29:32.078Z,84.81
2019-05-26T16:32:01.363Z,84.83
2019-05-26T16:34:31.357Z,84.91
2019-05-26T16:37:01.405Z,84.91
2019-05-26T16:39:37.009Z,84.91
2019-05-26T16:42:02.176Z,85.03
2019-05-26T16:44:31.963Z,84.91
2019-05-26T16:47:01.480Z,85.07
2019-05-26T16:49:31.389Z,85.22
2019-05-26T16:52:00.419Z,85.66
2019-05-26T16:54:29.500Z,85.86
2019-05-26T16:56:58.452Z,86.21
2019-05-26T16:59:27.515Z,86.21
2019-05-26T17:01:56.557Z,86.27
2019-05-26T17:04:25.581Z,86.47
2019-05-26T17:06:54.628Z,86.49
2019-05-26T17:09:23.678Z,86.61
2019-05-26T17:11:53.075Z,86.89
2019-05-26T17:14:22.086Z,86.96
2019-05-26T17:16:51.119Z,86.96
2019-05-26T17:19:20.132Z,86.96
2019-05-26T17:21:49.623Z,87.07
2019-05-26T17:24:18.639Z,87.20
2019-05-26T17:26:47.682Z,87.21
2019-05-26T17:29:16.699Z,87.40
2019-05-26T17:31:45.766Z,87.37
2019-05-26T17:34:14.808Z,87.36
2019-05-26T17:36:43.842Z,87.38
2019-05-26T17:39:12.856Z,87.28
2019-05-26T17:41:41.870Z,87.21
2019-05-26T17:44:10.896Z,87.06
2019-05-26T17:46:39.826Z,87.34
2019-05-26T17:49:08.866Z,87.42
2019-05-26T17:51:37.910Z,87.33
2019-05-26T17:54:07.365Z,87.35
2019-05-26T17:56:36.407Z,87.40
2019-05-26T17:59:05.581Z,87.38
2019-05-26T18:01:34.594Z,87.22
2019-05-26T18:04:03.601Z,87.44
2019-05-26T18:06:32.626Z,87.80
2019-05-26T18:09:02.135Z,87.94
2019-05-26T18:11:32.137Z,88.18
2019-05-26T18:14:02.171Z,88.19
2019-05-26T18:16:32.177Z,88.36
2019-05-26T18:19:02.245Z,88.31
2019-05-26T18:21:32.500Z,88.26
2019-05-26T18:24:02.192Z,88.30
2019-05-26T18:26:32.270Z,88.45
2019-05-26T18:29:02.291Z,88.59
2019-05-26T18:31:32.298Z,88.60
2019-05-26T18:34:02.340Z,88.82
2019-05-26T18:36:32.359Z,88.85
2019-05-26T18:39:02.378Z,89.03
2019-05-26T18:41:32.400Z,88.94
2019-05-26T18:44:02.368Z,88.95
2019-05-26T18:46:32.427Z,89.15
2019-05-26T18:49:02.448Z,89.28
2019-05-26T18:51:32.456Z,89.36
2019-05-26T18:54:02.451Z,89.41
2019-05-26T18:56:32.455Z,89.34
2019-05-26T18:59:02.416Z,89.15
2019-05-26T19:01:32.777Z,89.21
2019-05-26T19:04:02.542Z,89.23
2019-05-26T19:06:32.531Z,89.20
2019-05-26T19:09:02.574Z,89.26
2019-05-26T19:11:32.558Z,89.34
2019-05-26T19:14:02.902Z,89.35
2019-05-26T19:16:32.612Z,89.36
2019-05-26T19:19:02.619Z,89.29
2019-05-26T19:21:32.731Z,89.43
2019-05-26T19:24:02.639Z,89.45
2019-05-26T19:26:32.675Z,89.44
2019-05-26T19:29:02.712Z,89.28
2019-05-26T19:31:32.999Z,89.33
2019-05-26T19:34:02.670Z,89.33
2019-05-26T19:36:32.750Z,89.38
2019-05-26T19:39:03.133Z,89.30
2019-05-26T19:41:33.201Z,89.37
2019-05-26T19:44:02.813Z,89.43
2019-05-26T19:46:32.917Z,89.34
2019-05-26T19:49:02.943Z,89.23
2019-05-26T19:51:32.985Z,89.23
2019-05-26T19:54:02.976Z,89.14
2019-05-26T19:56:32.980Z,89.14
2019-05-26T19:59:03.029Z,88.98
2019-05-26T20:01:33.024Z,88.98
2019-05-26T20:04:03.014Z,88.83
2019-05-26T20:06:33.062Z,88.85
2019-05-26T20:09:03.563Z,88.77
2019-05-26T20:11:33.105Z,88.71
2019-05-26T20:14:04.339Z,88.73
2019-05-26T20:16:33.313Z,88.88
2019-05-26T20:19:03.166Z,89.01
2019-05-26T20:21:33.152Z,88.98
2019-05-26T20:24:03.292Z,88.99
2019-05-26T20:26:33.463Z,89.06
2019-05-26T20:29:03.196Z,88.93
2019-05-26T20:31:33.214Z,88.91
2019-05-26T20:34:03.544Z,88.80
2019-05-26T20:36:33.261Z,88.79
2019-05-26T20:39:03.280Z,88.87
2019-05-26T20:41:33.285Z,88.79
2019-05-26T20:44:02.628Z,88.72
2019-05-26T20:46:31.641Z,88.69
2019-05-26T20:49:00.672Z,88.53
2019-05-26T20:51:29.715Z,88.45
2019-05-26T20:53:59.081Z,88.45
2019-05-26T20:56:28.230Z,88.61
2019-05-26T20:58:57.276Z,88.52
2019-05-26T21:01:26.320Z,88.55
2019-05-26T21:03:55.365Z,88.43
2019-05-26T21:06:24.380Z,88.56
2019-05-26T21:08:53.415Z,88.53
2019-05-26T21:11:22.412Z,88.62
2019-05-26T21:13:51.423Z,88.76
2019-05-26T21:16:20.457Z,88.89
2019-05-26T21:18:49.417Z,89.23
2019-05-26T21:21:18.430Z,89.18
2019-05-26T21:23:47.469Z,89.33
2019-05-26T21:26:16.500Z,89.33
2019-05-26T21:28:45.560Z,89.43
2019-05-26T21:31:14.567Z,89.47
2019-05-26T21:33:43.580Z,89.66
2019-05-26T21:36:12.609Z,89.48
2019-05-26T21:38:41.628Z,89.48
2019-05-26T21:41:10.966Z,89.44
2019-05-26T21:43:39.907Z,89.42
2019-05-26T21:46:08.960Z,89.47
2019-05-26T21:48:38.325Z,89.58
2019-05-26T21:51:07.366Z,89.65
2019-05-26T21:53:36.759Z,89.33
2019-05-26T21:56:05.894Z,89.33
2019-05-26T21:58:34.837Z,89.41
2019-05-26T22:01:03.961Z,89.35
2019-05-26T22:03:33.979Z,89.38
2019-05-26T22:06:04.044Z,89.24
2019-05-26T22:08:33.994Z,89.19
2019-05-26T22:11:04.047Z,89.01
2019-05-26T22:13:34.023Z,89.18
2019-05-26T22:16:04.150Z,88.99
2019-05-26T22:18:33.971Z,88.98
2019-05-26T22:21:03.067Z,88.76
2019-05-26T22:23:32.414Z,88.69
2019-05-26T22:26:01.461Z,88.69
2019-05-26T22:28:30.756Z,88.60
2019-05-26T22:31:00.150Z,88.38
2019-05-26T22:33:29.109Z,88.40
2019-05-26T22:35:58.434Z,88.36
2019-05-26T22:38:27.386Z,88.42
2019-05-26T22:40:56.332Z,88.55
2019-05-26T22:43:25.387Z,88.36
2019-05-26T22:45:54.413Z,88.29
2019-05-26T22:48:23.457Z,88.39
2019-05-26T22:50:52.467Z,88.21
2019-05-26T22:53:21.553Z,88.13
2019-05-26T22:55:50.587Z,88.19
2019-05-26T22:58:19.540Z,88.18
2019-05-26T23:00:48.593Z,88.15
2019-05-26T23:03:17.985Z,88.04
2019-05-26T23:05:47.007Z,88.03
2019-05-26T23:08:16.052Z,87.98
2019-05-26T23:10:45.119Z,88.09
2019-05-26T23:13:14.063Z,88.08
2019-05-26T23:15:43.087Z,88.03
2019-05-26T23:18:12.128Z,88.01
2019-05-26T23:20:41.174Z,88.01
2019-05-26T23:23:10.201Z,87.96
2019-05-26T23:25:39.228Z,87.85
2019-05-26T23:28:08.287Z,87.88
2019-05-26T23:30:37.337Z,87.72
2019-05-26T23:33:06.353Z,87.59
2019-05-26T23:35:35.413Z,87.54
2019-05-26T23:38:04.827Z,87.53
2019-05-26T23:40:34.827Z,87.53
2019-05-26T23:43:04.878Z,87.53
2019-05-26T23:45:34.806Z,87.60
2019-05-26T23:48:04.979Z,87.44
2019-05-26T23:50:34.905Z,87.73
2019-05-26T23:53:05.122Z,87.55
2019-05-26T23:55:34.960Z,87.50
2019-05-26T23:58:04.973Z,87.33
